Time;durP1;ratioP1;P1;durP2;ratioP2;P2;SDS_P1;SDS_P2;PMS_P1;PMS_P2;Temp;Humidity;BMP_temperature;BMP_pressure;BME280_temperature;BME280_humidity;BME280_pressure;Samples;Min_cycle;Max_cycle;Signal;HPM_P1;HPM_P2
2023/11/14 00:00:46;;;;;;;29.73;9.40;;;11.90;83.90;;;;;;797656;179;26441;-89
2023/11/14 00:03:22;;;;;;;13.70;4.30;;;12.00;83.50;;;;;;797673;175;26976;-87
2023/11/14 00:05:57;;;;;;;35.70;8.60;;;11.90;83.30;;;;;;797884;180;26476;-87
2023/11/14 00:08:24;;;;;;;39.90;15.37;;;11.90;84.00;;;;;;800606;176;27095;-88
2023/11/14 00:11:04;;;;;;;;;;;;;;;;;;;;;
2023/11/14 00:13:29;;;;;;;20.13;6.47;;;11.90;83.60;;;;;;799129;177;26428;-88
2023/11/14 00:16:05;;;;;;;35.50;9.60;;;11.90;83.40;;;;;;798919;179;26968;-88
2023/11/14 00:18:52;;;;;;;36.47;14.33;;;11.90;84.00;;;;;;801724;175;26460;-86
2023/11/14 00:21:23;;;;;;;28.97;9.03;;;11.90;83.60;;;;;;801454;177;26450;-87
2023/11/14 00:26:35;;;;;;;36.93;14.97;;;12.00;82.80;;;;;;800155;179;27008;-90
2023/11/14 00:29:08;;;;;;;32.10;11.33;;;12.00;83.00;;;;;;786872;183;26448;-88
2023/11/14 00:31:38;;;;;;;29.80;9.87;;;12.00;83.20;;;;;;787486;177;27830;-92
2023/11/14 00:34:10;;;;;;;20.63;6.57;;;11.90;83.50;;;;;;787778;183;26499;-87
2023/11/14 00:36:46;;;;;;;31.80;6.63;;;11.90;83.00;;;;;;790949;172;27835;-87
2023/11/14 00:39:34;;;;;;;31.83;10.33;;;11.90;83.50;;;;;;807536;177;26433;-89
2023/11/14 00:42:14;;;;;;;38.07;14.60;;;11.80;84.30;;;;;;806606;176;26431;-89
2023/11/14 00:44:50;;;;;;;23.10;4.83;;;11.90;83.10;;;;;;804789;178;26418;-88
2023/11/14 00:50:05;;;;;;;23.97;4.93;;;11.90;83.20;;;;;;786124;179;26447;-87
2023/11/14 00:53:02;;;;;;;22.20;4.47;;;11.90;82.60;;;;;;785586;179;26448;-89
2023/11/14 00:55:28;;;;;;;22.60;4.50;;;12.00;82.30;;;;;;782820;183;26575;-87
2023/11/14 01:00:49;;;;;;;27.70;6.43;;;11.80;83.60;;;;;;786903;182;26984;-88
2023/11/14 01:03:45;;;;;;;24.77;6.50;;;11.90;82.90;;;;;;785570;183;26431;-88
2023/11/14 01:06:20;;;;;;;29.80;6.53;;;11.90;84.00;;;;;;773426;184;26485;-89
2023/11/14 01:09:03;;;;;;;26.23;7.90;;;12.00;82.40;;;;;;773335;185;27080;-89
2023/11/14 01:11:48;;;;;;;23.63;5.47;;;12.00;82.80;;;;;;773397;181;26477;-89
2023/11/14 01:17:02;;;;;;;27.10;5.10;;;12.00;84.00;;;;;;785787;182;27045;-90
2023/11/14 01:27:38;;;;;;;25.00;5.17;;;11.80;83.40;;;;;;786677;182;26440;-89
2023/11/14 01:30:13;;;;;;;24.23;4.80;;;11.90;82.40;;;;;;786227;179;26482;-86
2023/11/14 01:33:11;;;;;;;25.00;5.93;;;11.90;82.50;;;;;;786681;177;26472;-89
2023/11/14 01:35:22;;;;;;;30.53;5.57;;;11.90;82.50;;;;;;787701;176;26594;-87
2023/11/14 01:38:16;;;;;;;;;;;;;;;;;;;;;
2023/11/14 01:40:53;;;;;;;31.47;9.30;;;12.00;82.50;;;;;;784169;182;26461;-89
2023/11/14 01:44:03;;;;;;;;;;;;;;;;;;;;;
2023/11/14 01:46:34;;;;;;;25.23;6.27;;;11.90;83.90;;;;;;781835;175;26431;-90
2023/11/14 01:49:13;;;;;;;27.60;5.70;;;12.00;81.90;;;;;;786092;182;26423;-90
2023/11/14 01:54:16;;;;;;;32.13;6.77;;;12.00;82.40;;;;;;785382;183;26475;-89
2023/11/14 01:57:07;;;;;;;29.40;6.97;;;12.00;82.30;;;;;;785234;180;27091;-90
2023/11/14 01:59:41;;;;;;;36.13;8.20;;;11.90;83.10;;;;;;785457;181;26420;-88
2023/11/14 02:02:17;;;;;;;48.17;14.30;;;12.00;82.80;;;;;;785638;182;26542;-89
2023/11/14 02:04:51;;;;;;;48.67;14.97;;;11.90;83.00;;;;;;785385;180;26574;-89
2023/11/14 02:07:19;;;;;;;28.17;9.77;;;11.80;83.30;;;;;;785325;182;26516;-89
2023/11/14 02:09:46;;;;;;;25.63;8.03;;;11.80;83.50;;;;;;785387;179;26461;-89
2023/11/14 02:12:33;;;;;;;;;;;;;;;;;;;;;
2023/11/14 02:20:52;;;;;;;27.13;7.00;;;11.80;84.00;;;;;;785495;182;26435;-89
2023/11/14 02:23:20;;;;;;;26.90;7.07;;;11.90;83.40;;;;;;785713;180;26455;-88
2023/11/14 02:25:46;;;;;;;31.63;7.07;;;12.00;82.80;;;;;;785229;180;26488;-93
2023/11/14 02:28:18;;;;;;;21.40;5.13;;;12.00;82.80;;;;;;785237;182;26510;-90
2023/11/14 02:31:21;;;;;;;29.73;6.83;;;11.90;82.50;;;;;;787512;180;26501;-89
2023/11/14 02:33:47;;;;;;;43.70;16.50;;;11.80;82.70;;;;;;787276;181;26434;-88
2023/11/14 02:36:19;;;;;;;35.43;9.47;;;11.90;82.80;;;;;;786809;182;26430;-86
2023/11/14 02:39:04;;;;;;;26.33;6.73;;;11.80;82.80;;;;;;787072;182;26431;-88
2023/11/14 02:44:38;;;;;;;22.43;5.43;;;11.90;83.10;;;;;;786388;181;26440;-89
2023/11/14 02:47:20;;;;;;;19.17;4.40;;;12.00;82.50;;;;;;786269;182;26468;-90
2023/11/14 02:50:14;;;;;;;25.70;5.00;;;12.00;82.30;;;;;;785994;182;28039;-89
2023/11/14 02:52:47;;;;;;;27.03;5.30;;;11.90;82.70;;;;;;785978;180;26430;-89
2023/11/14 02:58:28;;;;;;;27.03;5.03;;;11.90;83.60;;;;;;786454;182;28047;-87
2023/11/14 03:01:20;;;;;;;27.30;5.03;;;11.90;83.80;;;;;;786064;180;26451;-88
2023/11/14 03:06:35;;;;;;;36.77;8.23;;;12.00;83.20;;;;;;784638;180;26478;-88
2023/11/14 03:09:04;;;;;;;43.33;13.90;;;11.90;83.00;;;;;;785143;180;26534;-88
2023/11/14 03:11:30;;;;;;;37.87;15.37;;;11.90;83.30;;;;;;785239;180;27061;-88
2023/11/14 03:14:01;;;;;;;39.67;12.33;;;11.90;83.20;;;;;;785349;181;26418;-88
2023/11/14 03:16:34;;;;;;;23.93;4.73;;;12.00;83.30;;;;;;785519;177;26435;-88
2023/11/14 03:19:06;;;;;;;23.00;5.63;;;12.00;82.80;;;;;;785759;180;26494;-88
2023/11/14 03:21:33;;;;;;;23.30;4.73;;;12.00;83.00;;;;;;785642;180;26994;-88
2023/11/14 03:24:09;;;;;;;17.83;4.50;;;11.90;83.10;;;;;;786048;183;26487;-88
2023/11/14 03:26:43;;;;;;;25.40;4.90;;;11.90;83.60;;;;;;785608;180;27110;-88
2023/11/14 03:29:10;;;;;;;27.57;5.47;;;11.80;83.90;;;;;;785611;182;26446;-85
2023/11/14 03:31:53;;;;;;;26.47;5.50;;;11.80;84.20;;;;;;785358;181;26590;-90
2023/11/14 03:34:29;;;;;;;19.00;4.13;;;11.80;84.60;;;;;;785698;182;26442;-87
2023/11/14 03:39:34;;;;;;;27.43;5.20;;;11.80;83.60;;;;;;785674;177;26447;-88
2023/11/14 03:42:04;;;;;;;21.43;5.00;;;11.70;85.10;;;;;;787578;180;26992;-88
2023/11/14 03:47:18;;;;;;;22.57;4.93;;;11.70;84.70;;;;;;717985;180;26544;-90
2023/11/14 03:49:45;;;;;;;29.60;5.77;;;11.60;85.40;;;;;;771818;186;27033;-88
2023/11/14 03:52:25;;;;;;;25.63;5.23;;;11.80;85.20;;;;;;771191;186;26588;-89
2023/11/14 03:55:25;;;;;;;20.53;5.53;;;11.80;84.60;;;;;;771145;186;26514;-88
2023/11/14 03:57:36;;;;;;;16.20;4.67;;;11.90;84.20;;;;;;782059;178;26625;-86
2023/11/14 04:00:04;;;;;;;20.10;4.50;;;11.80;84.00;;;;;;801406;179;26433;-86
2023/11/14 04:02:29;;;;;;;23.20;5.00;;;11.80;84.30;;;;;;801131;176;26997;-86
2023/11/14 04:04:55;;;;;;;23.77;4.80;;;11.90;83.50;;;;;;801217;177;26438;-86
2023/11/14 04:07:23;;;;;;;22.37;5.20;;;11.80;84.40;;;;;;801132;179;27040;-86
2023/11/14 04:09:49;;;;;;;26.23;5.47;;;11.80;84.80;;;;;;801077;179;26434;-87
2023/11/14 04:12:15;;;;;;;25.50;5.30;;;12.00;83.80;;;;;;801158;179;26481;-87
2023/11/14 04:14:42;;;;;;;21.17;4.43;;;12.00;83.80;;;;;;801161;179;26465;-86
2023/11/14 04:17:08;;;;;;;21.90;4.10;;;12.10;83.00;;;;;;801031;176;26486;-87
2023/11/14 04:19:35;;;;;;;23.17;4.93;;;12.10;84.20;;;;;;800714;179;26435;-86
2023/11/14 04:22:02;;;;;;;21.57;4.67;;;12.00;83.30;;;;;;800686;179;26463;-86
2023/11/14 04:24:28;;;;;;;20.63;4.60;;;12.00;83.50;;;;;;800577;179;26998;-87
2023/11/14 04:26:59;;;;;;;25.27;5.23;;;12.10;82.80;;;;;;800654;179;26472;-86
2023/11/14 04:29:21;;;;;;;24.93;4.60;;;12.20;83.50;;;;;;800280;179;26982;-86
2023/11/14 04:31:48;;;;;;;21.43;5.07;;;12.20;82.50;;;;;;800747;179;26815;-87
2023/11/14 04:34:15;;;;;;;19.47;5.17;;;12.20;83.60;;;;;;800694;179;26987;-86
2023/11/14 04:36:41;;;;;;;19.97;4.23;;;12.20;83.50;;;;;;800510;176;26463;-86
2023/11/14 04:39:08;;;;;;;22.90;5.40;;;12.20;83.80;;;;;;800670;179;26447;-86
2023/11/14 04:41:34;;;;;;;20.80;4.77;;;12.30;83.20;;;;;;801354;177;26431;-88
2023/11/14 04:44:01;;;;;;;22.47;4.60;;;12.30;82.80;;;;;;803340;175;26519;-88
2023/11/14 04:46:27;;;;;;;22.43;5.47;;;12.30;83.40;;;;;;803288;175;26467;-86
2023/11/14 04:48:54;;;;;;;20.70;4.03;;;12.30;83.10;;;;;;803325;177;26478;-89
2023/11/14 04:51:21;;;;;;;23.13;5.20;;;12.40;83.60;;;;;;801933;177;26455;-85
2023/11/14 04:53:47;;;;;;;20.80;4.57;;;12.40;82.10;;;;;;802914;177;26434;-87
2023/11/14 04:56:15;;;;;;;30.53;4.53;;;12.40;82.00;;;;;;802855;179;26447;-87
2023/11/14 04:58:42;;;;;;;20.57;4.20;;;12.50;81.80;;;;;;802296;179;26534;-88
2023/11/14 05:01:11;;;;;;;19.23;4.07;;;12.40;82.70;;;;;;802296;178;26596;-86
2023/11/14 05:03:37;;;;;;;20.67;5.07;;;12.40;82.40;;;;;;801483;179;26576;-86
2023/11/14 05:06:04;;;;;;;35.90;5.53;;;12.40;82.70;;;;;;801770;178;27010;-86
2023/11/14 05:08:30;;;;;;;23.13;5.33;;;12.40;82.40;;;;;;801573;177;26543;-86
2023/11/14 05:10:57;;;;;;;25.30;5.07;;;12.50;82.10;;;;;;801397;178;28073;-86
2023/11/14 05:13:23;;;;;;;21.80;4.43;;;12.50;82.60;;;;;;801135;179;26434;-86
2023/11/14 05:15:50;;;;;;;27.83;5.00;;;12.50;83.00;;;;;;801042;179;26430;-89
2023/11/14 05:18:17;;;;;;;24.57;5.17;;;12.50;82.70;;;;;;801136;179;27027;-85
2023/11/14 05:20:43;;;;;;;28.33;4.87;;;12.40;82.90;;;;;;801143;179;26463;-86
2023/11/14 05:23:10;;;;;;;22.40;4.93;;;12.40;82.90;;;;;;801132;179;26622;-86
2023/11/14 05:25:36;;;;;;;18.17;5.17;;;12.40;82.40;;;;;;802224;178;26443;-86
2023/11/14 05:28:04;;;;;;;25.80;4.73;;;12.50;82.70;;;;;;803328;175;26982;-86
2023/11/14 05:30:31;;;;;;;21.20;4.53;;;12.40;83.40;;;;;;800790;179;26478;-85
2023/11/14 05:32:57;;;;;;;24.80;4.53;;;12.40;83.10;;;;;;800858;179;26435;-86
2023/11/14 05:35:25;;;;;;;25.77;6.60;;;12.50;83.50;;;;;;800767;179;26466;-86
2023/11/14 05:37:53;;;;;;;22.60;5.80;;;12.50;83.20;;;;;;800688;176;26458;-87
2023/11/14 05:40:20;;;;;;;21.77;4.50;;;12.40;83.60;;;;;;789106;179;26443;-86
2023/11/14 05:42:47;;;;;;;21.40;4.13;;;12.40;83.00;;;;;;800826;177;27116;-87
2023/11/14 05:45:13;;;;;;;21.83;4.07;;;12.40;82.50;;;;;;800903;179;26456;-86
2023/11/14 05:47:40;;;;;;;28.13;5.00;;;12.40;83.30;;;;;;800800;176;26992;-86
2023/11/14 05:50:07;;;;;;;26.00;5.23;;;12.30;83.40;;;;;;800942;179;26460;-86
2023/11/14 05:52:34;;;;;;;21.23;4.50;;;12.40;83.20;;;;;;801639;179;26459;-86
2023/11/14 05:55:03;;;;;;;24.10;4.57;;;12.30;83.20;;;;;;802022;179;26965;-85
2023/11/14 05:57:43;;;;;;;23.43;5.00;;;12.30;83.20;;;;;;802310;176;27560;-86
2023/11/14 06:00:27;;;;;;;21.93;4.73;;;12.20;83.40;;;;;;802408;177;26708;-87
2023/11/14 06:03:06;;;;;;;26.07;5.87;;;12.30;83.40;;;;;;802540;179;26451;-87
2023/11/14 06:05:52;;;;;;;21.20;4.60;;;12.20;84.50;;;;;;803468;177;26964;-86
2023/11/14 06:11:08;;;;;;;20.40;4.23;;;12.20;83.80;;;;;;802526;179;26450;-86
2023/11/14 06:13:37;;;;;;;18.57;5.17;;;12.20;84.70;;;;;;802109;177;26434;-85
2023/11/14 06:16:04;;;;;;;23.63;4.67;;;12.20;84.00;;;;;;801794;177;26437;-86
2023/11/14 06:18:30;;;;;;;25.00;4.70;;;12.20;83.40;;;;;;802046;179;26458;-85
2023/11/14 06:20:59;;;;;;;28.87;4.67;;;12.10;84.00;;;;;;802000;179;26479;-86
2023/11/14 06:23:23;;;;;;;25.50;4.90;;;12.20;83.60;;;;;;801361;179;26504;-86
2023/11/14 06:25:50;;;;;;;22.67;4.23;;;12.20;83.90;;;;;;801166;179;26447;-88
2023/11/14 06:28:17;;;;;;;29.00;4.90;;;12.10;83.90;;;;;;801202;176;26447;-86
2023/11/14 06:30:43;;;;;;;19.00;4.30;;;12.10;85.20;;;;;;801193;179;26459;-86
2023/11/14 06:33:10;;;;;;;22.87;5.30;;;12.20;83.80;;;;;;801294;179;26439;-86
2023/11/14 06:35:36;;;;;;;25.50;4.97;;;12.20;83.70;;;;;;801187;179;26435;-85
2023/11/14 06:38:03;;;;;;;19.10;4.93;;;12.10;84.30;;;;;;801148;176;26472;-86
2023/11/14 06:40:30;;;;;;;21.40;4.83;;;12.10;84.20;;;;;;800991;179;26462;-86
2023/11/14 06:42:56;;;;;;;25.20;6.37;;;12.10;83.70;;;;;;800602;179;26427;-86
2023/11/14 06:45:23;;;;;;;18.10;4.07;;;12.20;84.30;;;;;;801035;179;26467;-87
2023/11/14 06:47:50;;;;;;;25.87;4.33;;;12.20;83.80;;;;;;801986;176;26455;-86
2023/11/14 06:50:16;;;;;;;21.87;4.37;;;12.20;83.60;;;;;;802187;179;26593;-85
2023/11/14 06:52:42;;;;;;;23.70;4.57;;;12.20;83.50;;;;;;800867;179;26967;-86
2023/11/14 06:55:09;;;;;;;22.77;4.80;;;12.20;83.70;;;;;;800749;179;26448;-86
2023/11/14 06:57:36;;;;;;;18.60;4.53;;;12.20;83.70;;;;;;784870;176;26550;-85
2023/11/14 07:00:05;;;;;;;18.90;4.20;;;12.20;83.60;;;;;;766078;185;27145;-86
2023/11/14 07:02:29;;;;;;;24.73;4.87;;;12.10;83.50;;;;;;766187;185;26499;-85
2023/11/14 07:04:57;;;;;;;24.23;5.00;;;12.10;83.70;;;;;;766450;184;26504;-85
2023/11/14 07:07:24;;;;;;;21.47;4.83;;;12.10;84.20;;;;;;766443;186;26518;-86
2023/11/14 07:09:50;;;;;;;27.10;5.33;;;12.20;84.10;;;;;;766372;187;26634;-87
2023/11/14 07:12:20;;;;;;;17.13;4.83;;;12.20;83.60;;;;;;759752;187;27034;-86
2023/11/14 07:14:47;;;;;;;23.70;5.37;;;12.10;83.30;;;;;;773306;183;26543;-86
2023/11/14 07:17:14;;;;;;;24.60;5.30;;;12.20;83.40;;;;;;775354;184;26492;-86
2023/11/14 07:19:41;;;;;;;22.57;5.57;;;12.20;83.40;;;;;;775073;184;26558;-86
2023/11/14 07:22:17;;;;;;;26.37;4.60;;;12.30;82.70;;;;;;774507;185;26461;-86
2023/11/14 07:24:49;;;;;;;19.83;4.50;;;12.40;82.70;;;;;;774480;185;27036;-85
2023/11/14 07:27:16;;;;;;;17.23;4.30;;;12.50;81.90;;;;;;775624;185;26466;-86
2023/11/14 07:29:51;;;;;;;24.87;4.63;;;12.50;82.70;;;;;;776308;180;26462;-88
2023/11/14 07:32:17;;;;;;;21.33;4.43;;;12.50;81.70;;;;;;776433;179;26489;-88
2023/11/14 07:34:50;;;;;;;22.13;4.07;;;12.50;82.60;;;;;;776221;179;26465;-88
2023/11/14 07:37:17;;;;;;;21.60;4.50;;;12.60;81.90;;;;;;776006;180;26492;-87
2023/11/14 07:39:43;;;;;;;21.80;4.60;;;12.60;82.30;;;;;;774403;180;26506;-85
2023/11/14 07:42:10;;;;;;;18.37;4.63;;;12.60;83.10;;;;;;773633;185;26791;-86
2023/11/14 07:44:36;;;;;;;24.63;5.77;;;12.60;82.70;;;;;;773660;185;27071;-86
2023/11/14 07:47:03;;;;;;;24.00;5.13;;;12.60;83.10;;;;;;773583;185;26503;-86
2023/11/14 07:49:30;;;;;;;18.97;4.30;;;12.60;82.90;;;;;;773755;185;26509;-85
2023/11/14 07:51:56;;;;;;;25.23;4.70;;;12.60;83.40;;;;;;773578;185;26478;-86
2023/11/14 07:54:23;;;;;;;22.37;4.43;;;12.60;83.90;;;;;;773123;186;26498;-85
2023/11/14 07:56:49;;;;;;;17.20;4.30;;;12.60;82.90;;;;;;773182;186;27041;-86
2023/11/14 07:59:21;;;;;;;14.60;4.40;;;12.60;83.90;;;;;;773165;185;26489;-86
2023/11/14 08:01:43;;;;;;;16.93;4.47;;;12.70;82.80;;;;;;772845;185;27012;-86
2023/11/14 08:04:10;;;;;;;20.27;4.10;;;12.80;83.20;;;;;;773224;186;26485;-85
2023/11/14 08:06:36;;;;;;;17.60;3.57;;;12.80;83.20;;;;;;772987;185;26515;-86
2023/11/14 08:09:04;;;;;;;20.67;3.70;;;12.80;82.10;;;;;;773103;184;26595;-85
2023/11/14 08:11:29;;;;;;;17.83;3.93;;;12.80;82.20;;;;;;772927;185;26493;-86
2023/11/14 08:13:56;;;;;;;15.90;4.70;;;12.80;82.90;;;;;;772972;185;26541;-86
2023/11/14 08:16:22;;;;;;;18.30;4.03;;;12.90;81.80;;;;;;773023;185;26477;-86
2023/11/14 08:18:49;;;;;;;20.30;4.40;;;12.90;82.10;;;;;;773038;185;26504;-86
2023/11/14 08:21:15;;;;;;;17.70;4.30;;;13.00;81.70;;;;;;772879;185;27074;-86
2023/11/14 08:23:42;;;;;;;14.77;3.80;;;13.10;81.00;;;;;;773089;186;26496;-86
2023/11/14 08:26:09;;;;;;;19.13;4.03;;;13.10;81.00;;;;;;772956;185;26486;-86
2023/11/14 08:28:36;;;;;;;18.00;3.80;;;13.10;81.00;;;;;;774947;183;26492;-86
2023/11/14 08:31:02;;;;;;;19.93;4.57;;;13.10;80.50;;;;;;774944;185;26523;-85
2023/11/14 08:33:35;;;;;;;18.83;4.20;;;13.10;81.30;;;;;;774547;185;26498;-86
2023/11/14 08:36:10;;;;;;;19.13;3.67;;;13.10;81.20;;;;;;774498;185;27056;-87
2023/11/14 08:38:43;;;;;;;17.50;3.90;;;13.10;80.80;;;;;;756584;177;27085;-86
2023/11/14 08:41:09;;;;;;;18.30;4.90;;;13.20;80.90;;;;;;739996;190;26593;-87
2023/11/14 08:43:36;;;;;;;14.17;3.77;;;13.20;81.20;;;;;;739155;189;26537;-86
2023/11/14 08:46:03;;;;;;;15.77;3.50;;;13.20;80.70;;;;;;738910;194;26544;-85
2023/11/14 08:48:29;;;;;;;16.37;3.53;;;13.20;80.70;;;;;;737023;194;26725;-85
2023/11/14 08:50:56;;;;;;;19.33;4.60;;;13.30;80.30;;;;;;759607;186;28101;-85
2023/11/14 08:53:22;;;;;;;14.47;4.13;;;13.40;80.70;;;;;;741484;191;26517;-86
2023/11/14 08:55:49;;;;;;;18.57;3.73;;;13.40;80.60;;;;;;745508;193;27110;-86
2023/11/14 08:58:16;;;;;;;15.83;5.83;;;13.40;80.20;;;;;;745473;191;26537;-86
2023/11/14 09:00:44;;;;;;;21.80;4.83;;;13.40;80.30;;;;;;743971;193;26698;-86
2023/11/14 09:03:09;;;;;;;24.10;9.00;;;13.50;81.00;;;;;;759415;188;26526;-87
2023/11/14 09:05:35;;;;;;;23.37;5.97;;;13.50;81.20;;;;;;741741;193;26573;-86
2023/11/14 09:08:03;;;;;;;17.60;4.80;;;13.50;80.30;;;;;;742379;192;26571;-86
2023/11/14 09:10:29;;;;;;;17.50;5.00;;;13.50;80.40;;;;;;759282;185;26514;-86
2023/11/14 09:12:56;;;;;;;17.10;4.00;;;13.40;80.80;;;;;;739526;193;27073;-86
2023/11/14 09:15:22;;;;;;;13.90;3.97;;;13.50;81.10;;;;;;745161;188;26518;-86
2023/11/14 09:17:48;;;;;;;14.97;4.37;;;13.50;81.10;;;;;;745249;183;26534;-86
2023/11/14 09:20:16;;;;;;;16.80;4.60;;;13.50;81.90;;;;;;759327;189;26499;-87
2023/11/14 09:22:42;;;;;;;14.50;4.27;;;13.60;80.70;;;;;;756796;189;27043;-86
2023/11/14 09:25:08;;;;;;;17.13;4.70;;;13.60;81.40;;;;;;755555;190;26708;-86
2023/11/14 09:27:35;;;;;;;19.07;4.30;;;13.60;80.40;;;;;;756048;190;26508;-86
2023/11/14 09:30:02;;;;;;;14.30;4.37;;;13.70;80.20;;;;;;755509;190;26636;-85
2023/11/14 09:32:28;;;;;;;15.30;3.50;;;13.70;79.60;;;;;;755811;190;26496;-86
2023/11/14 09:34:55;;;;;;;16.77;4.10;;;13.80;78.80;;;;;;755943;190;26500;-86
2023/11/14 09:37:21;;;;;;;19.13;5.03;;;13.80;79.30;;;;;;755508;189;27131;-86
2023/11/14 09:39:49;;;;;;;36.63;15.27;;;13.70;78.40;;;;;;757186;188;26544;-86
2023/11/14 09:42:15;;;;;;;21.87;7.20;;;13.80;78.90;;;;;;757478;189;27043;-86
2023/11/14 09:44:41;;;;;;;23.27;4.47;;;13.80;78.60;;;;;;757044;190;26486;-86
2023/11/14 09:47:08;;;;;;;9.50;3.00;;;13.80;78.80;;;;;;756885;190;27120;-87
2023/11/14 09:49:34;;;;;;;16.93;4.60;;;13.80;78.70;;;;;;756553;186;26502;-87
2023/11/14 09:52:01;;;;;;;19.60;5.10;;;13.80;78.70;;;;;;756748;190;27066;-86
2023/11/14 09:54:27;;;;;;;16.77;4.20;;;13.90;78.30;;;;;;756561;190;26483;-86
2023/11/14 10:05:34;;;;;;;14.27;3.77;;;14.00;79.20;;;;;;715195;177;26565;-91
2023/11/14 10:08:36;;;;;;;13.63;5.37;;;13.90;78.70;;;;;;758971;182;26687;-88
2023/11/14 10:11:31;;;;;;;41.40;18.47;;;13.80;79.10;;;;;;751722;184;26512;-89
2023/11/14 10:14:19;;;;;;;15.53;4.47;;;13.80;80.40;;;;;;751449;190;27084;-88
2023/11/14 10:30:47;;;;;;;20.03;6.40;;;13.90;79.10;;;;;;776237;185;27035;-87
2023/11/14 10:33:37;;;;;;;13.80;3.33;;;13.90;78.30;;;;;;775956;181;26501;-87
2023/11/14 10:56:20;;;;;;;15.70;3.30;;;13.70;81.20;;;;;;753151;171;27078;-87
2023/11/14 11:13:14;;;;;;;22.60;8.53;;;13.00;86.20;;;;;;790781;180;32917;-86
2023/11/14 11:15:54;;;;;;;22.83;9.80;;;13.10;86.40;;;;;;790468;182;26446;-89
2023/11/14 11:18:48;;;;;;;59.53;26.20;;;13.10;85.70;;;;;;774291;184;26544;-89
2023/11/14 11:24:17;;;;;;;33.97;16.40;;;13.20;84.90;;;;;;798072;180;26465;-89
2023/11/14 11:38:17;;;;;;;19.67;8.07;;;13.60;83.60;;;;;;738344;175;27006;-86
2023/11/14 11:41:00;;;;;;;28.00;10.93;;;13.60;82.70;;;;;;786080;182;26474;-89
2023/11/14 11:43:38;;;;;;;13.13;3.87;;;13.50;82.80;;;;;;786742;182;26989;-89
2023/11/14 11:46:21;;;;;;;10.23;4.77;;;13.40;84.00;;;;;;786449;180;26486;-90
2023/11/14 11:48:48;;;;;;;18.07;7.13;;;13.20;84.70;;;;;;782898;182;26476;-89
2023/11/14 11:51:17;;;;;;;33.47;16.27;;;13.10;85.90;;;;;;786891;182;26464;-88
2023/11/14 11:53:53;;;;;;;34.43;15.93;;;13.10;85.80;;;;;;786805;181;26469;-89
2023/11/14 11:56:40;;;;;;;17.10;6.90;;;12.90;86.70;;;;;;786824;183;26463;-85
2023/11/14 11:59:19;;;;;;;19.63;7.73;;;12.70;87.60;;;;;;786833;180;28046;-89
2023/11/14 12:02:02;;;;;;;28.07;11.97;;;12.60;88.20;;;;;;787174;180;26989;-85
2023/11/14 12:04:29;;;;;;;17.17;7.10;;;12.40;89.00;;;;;;788671;180;26545;-88
2023/11/14 12:06:56;;;;;;;15.37;6.73;;;12.30;90.30;;;;;;788728;181;26597;-87
2023/11/14 12:09:23;;;;;;;13.97;5.37;;;12.40;90.70;;;;;;788550;181;26449;-88
2023/11/14 12:11:53;;;;;;;22.03;9.97;;;12.40;89.90;;;;;;788287;182;26476;-87
2023/11/14 12:14:22;;;;;;;11.50;4.33;;;12.40;90.90;;;;;;788032;182;26470;-89
2023/11/14 12:16:49;;;;;;;15.53;6.50;;;12.40;91.10;;;;;;787862;180;26512;-87
2023/11/14 12:19:15;;;;;;;73.40;38.30;;;12.30;90.70;;;;;;787883;182;27030;-88
2023/11/14 12:21:48;;;;;;;62.63;31.20;;;12.30;90.30;;;;;;787604;182;26452;-88
2023/11/14 12:24:18;;;;;;;111.33;50.67;;;12.20;90.80;;;;;;787477;181;26980;-88
2023/11/14 12:26:45;;;;;;;24.83;8.90;;;12.20;91.50;;;;;;787338;181;26493;-88
2023/11/14 12:29:12;;;;;;;16.60;6.93;;;12.20;91.20;;;;;;787406;182;26472;-88
2023/11/14 12:31:55;;;;;;;25.07;12.40;;;12.10;91.60;;;;;;787358;182;26470;-90
2023/11/14 12:37:08;;;;;;;59.37;29.80;;;12.10;91.80;;;;;;787295;182;26496;-89
2023/11/14 12:43:17;;;;;;;29.60;12.07;;;12.00;93.20;;;;;;786767;182;26501;-86
2023/11/14 12:45:53;;;;;;;24.50;6.83;;;11.90;93.30;;;;;;783539;182;26516;-89
2023/11/14 12:48:41;;;;;;;15.03;4.90;;;11.80;94.20;;;;;;785668;180;26519;-88
2023/11/14 12:51:12;;;;;;;17.20;4.27;;;11.80;94.20;;;;;;772350;185;26490;-86
2023/11/14 12:53:45;;;;;;;20.30;5.80;;;11.80;94.50;;;;;;780311;182;26998;-87
2023/11/14 13:07:44;;;;;;;16.13;4.67;;;12.00;94.70;;;;;;780143;183;26509;-90
2023/11/14 13:10:12;;;;;;;18.60;5.17;;;12.00;94.60;;;;;;747755;186;26574;-87
2023/11/14 13:16:01;;;;;;;89.87;38.50;;;12.10;94.70;;;;;;764851;186;26539;-89
2023/11/14 13:18:32;;;;;;;71.53;33.27;;;12.00;94.20;;;;;;770096;183;27107;-90
2023/11/14 13:21:01;;;;;;;45.33;20.43;;;11.90;94.20;;;;;;757275;189;26568;-88
2023/11/14 13:26:22;;;;;;;61.83;24.60;;;11.90;94.70;;;;;;769686;187;26465;-89
2023/11/14 13:31:35;;;;;;;34.23;13.80;;;12.00;95.40;;;;;;766380;187;26490;-89
2023/11/14 13:34:03;;;;;;;23.43;6.60;;;12.10;95.60;;;;;;768518;186;26531;-88
2023/11/14 13:36:30;;;;;;;23.03;5.53;;;12.10;95.30;;;;;;767437;187;26493;-88
2023/11/14 13:38:56;;;;;;;18.43;5.13;;;12.10;95.00;;;;;;767363;184;27044;-88
2023/11/14 13:41:23;;;;;;;25.47;6.77;;;12.10;95.10;;;;;;767473;187;26517;-89
2023/11/14 13:43:50;;;;;;;21.03;6.33;;;12.10;95.40;;;;;;767411;187;26539;-84
2023/11/14 13:46:30;;;;;;;27.20;5.90;;;12.20;95.60;;;;;;767508;187;26554;-88
2023/11/14 13:48:57;;;;;;;40.53;17.23;;;12.20;95.30;;;;;;767451;186;26513;-87
2023/11/14 13:51:29;;;;;;;22.93;8.10;;;12.20;95.30;;;;;;766923;187;27053;-88
2023/11/14 13:53:54;;;;;;;26.73;7.00;;;12.20;95.00;;;;;;766665;187;26547;-87
2023/11/14 13:56:21;;;;;;;17.73;5.27;;;12.30;93.70;;;;;;766821;187;26600;-87
2023/11/14 13:58:47;;;;;;;37.67;15.47;;;12.30;93.70;;;;;;766746;187;26547;-88
2023/11/14 14:01:16;;;;;;;107.03;42.33;;;12.40;92.90;;;;;;768737;187;26502;-92
2023/11/14 14:03:41;;;;;;;82.53;38.33;;;12.40;93.10;;;;;;768276;186;26503;-89
2023/11/14 14:06:10;;;;;;;97.70;40.67;;;12.40;93.20;;;;;;767123;187;26589;-84
2023/11/14 14:08:46;;;;;;;49.83;22.63;;;12.40;93.30;;;;;;767076;186;27041;-88
2023/11/14 14:11:20;;;;;;;44.77;21.13;;;12.40;92.50;;;;;;767096;187;26486;-90
2023/11/14 14:13:47;;;;;;;31.30;13.33;;;12.40;92.60;;;;;;766899;187;28204;-88
2023/11/14 14:16:20;;;;;;;21.97;7.63;;;12.40;92.90;;;;;;766835;187;26495;-87
2023/11/14 14:18:47;;;;;;;67.93;35.37;;;12.50;91.90;;;;;;767007;187;26744;-87
2023/11/14 14:21:14;;;;;;;36.50;16.07;;;12.40;92.80;;;;;;767037;184;26494;-87
2023/11/14 14:23:50;;;;;;;45.50;17.63;;;12.40;93.00;;;;;;767000;187;27866;-89
2023/11/14 14:26:24;;;;;;;51.40;21.73;;;12.30;93.10;;;;;;768660;185;26494;-87
2023/11/14 14:28:50;;;;;;;33.87;16.03;;;12.40;92.90;;;;;;768875;186;26530;-87
2023/11/14 14:31:19;;;;;;;31.67;14.93;;;12.40;92.60;;;;;;768357;187;26571;-87
2023/11/14 14:33:52;;;;;;;21.37;8.40;;;12.40;92.80;;;;;;768213;184;26554;-87
2023/11/14 14:36:19;;;;;;;19.30;5.70;;;12.30;93.40;;;;;;767943;187;26476;-88
2023/11/14 14:38:56;;;;;;;30.10;11.37;;;12.30;93.30;;;;;;767760;186;27071;-87
2023/11/14 14:41:25;;;;;;;44.30;20.70;;;12.40;92.60;;;;;;767801;187;26515;-87
2023/11/14 14:43:56;;;;;;;54.27;27.37;;;12.40;92.90;;;;;;767531;187;26518;-88
2023/11/14 14:46:32;;;;;;;60.07;31.90;;;12.40;92.60;;;;;;767325;184;26515;-87
2023/11/14 14:49:06;;;;;;;72.60;33.67;;;12.40;92.20;;;;;;779913;178;26825;-87
2023/11/14 14:51:42;;;;;;;125.63;62.77;;;12.50;92.20;;;;;;778550;184;27027;-86
2023/11/14 14:54:11;;;;;;;17.20;7.73;;;12.40;92.60;;;;;;778531;183;27007;-86
2023/11/14 14:56:47;;;;;;;45.67;24.50;;;12.50;91.70;;;;;;794577;181;26443;-86
2023/11/14 14:59:37;;;;;;;;;;;;;;;;;;;;;
2023/11/14 15:02:39;;;;;;;61.77;29.80;;;12.50;92.10;;;;;;765047;187;26480;-86
2023/11/14 15:04:59;;;;;;;26.53;12.30;;;12.60;91.80;;;;;;766757;184;27073;-84
2023/11/14 15:07:31;;;;;;;30.93;14.47;;;12.60;90.90;;;;;;763757;187;26487;-86
2023/11/14 15:10:07;;;;;;;26.13;12.20;;;12.70;90.60;;;;;;771294;182;26474;-87
2023/11/14 15:12:48;;;;;;;59.83;31.43;;;12.70;90.40;;;;;;766258;186;26503;-84
2023/11/14 15:15:23;;;;;;;162.50;78.00;;;12.70;90.20;;;;;;771943;182;27132;-86
2023/11/14 15:17:55;;;;;;;48.20;22.47;;;12.70;90.70;;;;;;771659;186;26537;-86
2023/11/14 15:20:46;;;;;;;;;;;;;;;;;;;;;
2023/11/14 15:23:17;;;;;;;22.03;10.10;;;12.60;91.10;;;;;;771733;183;26487;-86